Terminal Aerodrome Forecast
Issued by NWS Omaha/Valley, NE

Home | Current Version | Previous Version | Text Only | Print | Product List | Glossary On
Versions: 1 2 3 4 5 6 7 8 9 10 11 12 13 14 15 16 17 18
000
FTUS43 KOAX 161535 AAA
TAFOFK
TAF AMD
KOFK 161535Z 1616/1712 36011KT P6SM OVC010
     FM162200 34013KT P6SM BKN040
     FM170700 33005KT P6SM SKC=

USA.gov is the U.S. government's official web portal to all federal, state and local government web resources and services.